createdAt,value
2018-05-06T00:01:03.544Z,7.63
2018-05-06T00:03:32.516Z,7.47
2018-05-06T00:06:02.158Z,7.00
2018-05-06T00:08:31.259Z,6.80
2018-05-06T00:11:00.398Z,6.83
2018-05-06T00:13:29.406Z,7.17
2018-05-06T00:15:58.402Z,7.23
2018-05-06T00:18:27.446Z,7.07
2018-05-06T00:20:56.422Z,7.20
2018-05-06T00:23:25.395Z,7.00
2018-05-06T00:25:54.363Z,6.80
2018-05-06T00:28:23.393Z,7.43
2018-05-06T00:30:52.422Z,7.60
2018-05-06T00:33:21.394Z,7.20
2018-05-06T00:35:50.382Z,7.23
2018-05-06T00:38:19.401Z,7.03
2018-05-06T00:40:48.359Z,7.40
2018-05-06T00:43:17.393Z,7.33
2018-05-06T00:45:46.367Z,6.73
2018-05-06T00:48:15.353Z,7.37
2018-05-06T00:50:44.354Z,6.87
2018-05-06T00:53:13.312Z,7.40
2018-05-06T00:55:42.307Z,7.10
2018-05-06T00:58:11.349Z,7.13
2018-05-06T01:00:40.327Z,7.57
2018-05-06T01:03:09.312Z,8.83
2018-05-06T01:05:38.283Z,7.90
2018-05-06T01:08:07.297Z,8.60
2018-05-06T01:10:36.276Z,10.13
2018-05-06T01:13:05.263Z,10.30
2018-05-06T01:15:34.231Z,9.27
2018-05-06T01:18:03.198Z,10.50
2018-05-06T01:20:32.202Z,9.97
2018-05-06T01:23:01.172Z,10.43
2018-05-06T01:25:30.277Z,11.80
2018-05-06T01:27:59.267Z,11.67
2018-05-06T01:30:28.262Z,11.90
2018-05-06T01:32:57.292Z,11.23
2018-05-06T01:35:26.275Z,11.97
2018-05-06T01:37:55.256Z,12.37
2018-05-06T01:40:24.227Z,13.03
2018-05-06T01:42:53.257Z,11.50
2018-05-06T01:45:22.272Z,12.77
2018-05-06T01:47:51.506Z,12.63
2018-05-06T01:50:20.484Z,12.17
2018-05-06T01:52:49.452Z,12.60
2018-05-06T01:55:18.427Z,12.70
2018-05-06T01:57:47.455Z,12.33
2018-05-06T02:00:16.423Z,12.50
2018-05-06T02:02:45.420Z,12.63
2018-05-06T02:05:14.377Z,12.73
2018-05-06T02:07:43.349Z,13.00
2018-05-06T02:10:12.353Z,12.63
2018-05-06T02:12:41.350Z,13.13
2018-05-06T02:15:10.309Z,12.53
2018-05-06T02:17:39.299Z,12.90
2018-05-06T02:20:08.264Z,12.33
2018-05-06T02:22:37.290Z,12.77
2018-05-06T02:25:06.280Z,12.50
2018-05-06T02:27:35.265Z,12.17
2018-05-06T02:30:04.251Z,12.30
2018-05-06T02:32:33.214Z,11.73
2018-05-06T02:35:02.223Z,12.87
2018-05-06T02:37:31.221Z,12.80
2018-05-06T02:40:00.200Z,12.50
2018-05-06T02:42:29.171Z,11.93
2018-05-06T02:44:58.423Z,11.50
2018-05-06T02:47:27.427Z,11.47
2018-05-06T02:49:56.422Z,11.13
2018-05-06T02:52:25.411Z,10.63
2018-05-06T02:54:54.404Z,10.70
2018-05-06T02:57:23.377Z,9.73
2018-05-06T02:59:52.435Z,9.63
2018-05-06T03:02:21.411Z,9.73
2018-05-06T03:04:50.393Z,9.80
2018-05-06T03:07:19.368Z,9.70
2018-05-06T03:09:48.363Z,9.80
2018-05-06T03:12:17.386Z,9.90
2018-05-06T03:14:46.360Z,10.40
2018-05-06T03:17:15.673Z,10.10
2018-05-06T03:19:44.646Z,9.97
2018-05-06T03:22:13.633Z,9.07
2018-05-06T03:24:42.650Z,9.80
2018-05-06T03:27:11.649Z,8.80
2018-05-06T03:29:40.635Z,8.97
2018-05-06T03:32:09.848Z,10.43
2018-05-06T03:34:38.829Z,10.17
2018-05-06T03:37:07.853Z,8.57
2018-05-06T03:39:37.701Z,9.33
2018-05-06T03:42:06.702Z,9.03
2018-05-06T03:44:35.675Z,9.00
2018-05-06T03:47:04.673Z,8.80
2018-05-06T03:49:33.692Z,8.83
2018-05-06T03:52:02.659Z,8.60
2018-05-06T03:54:31.633Z,8.03
2018-05-06T03:57:06.844Z,8.67
2018-05-06T03:59:42.038Z,8.40
2018-05-06T04:02:25.888Z,8.87
2018-05-06T04:04:54.856Z,9.60
2018-05-06T04:07:23.868Z,9.53
2018-05-06T04:09:53.171Z,8.67
2018-05-06T04:12:22.142Z,8.97
2018-05-06T04:14:51.107Z,8.67
2018-05-06T04:17:20.106Z,8.83
2018-05-06T04:19:49.114Z,8.67
2018-05-06T04:22:18.143Z,8.27
2018-05-06T04:24:47.159Z,8.20
2018-05-06T04:27:16.963Z,7.57
2018-05-06T04:29:45.961Z,8.10
2018-05-06T04:32:14.973Z,7.70
2018-05-06T04:34:43.943Z,7.67
2018-05-06T04:37:12.919Z,7.53
2018-05-06T04:39:41.869Z,7.60
2018-05-06T04:42:10.839Z,8.17
2018-05-06T04:44:39.854Z,6.70
2018-05-06T04:47:08.827Z,7.67
2018-05-06T04:49:37.805Z,6.50
2018-05-06T04:52:06.767Z,6.73
2018-05-06T04:54:35.766Z,6.80
2018-05-06T04:57:04.789Z,7.03
2018-05-06T04:59:33.762Z,7.60
2018-05-06T05:02:02.740Z,6.40
2018-05-06T05:04:31.727Z,6.30
2018-05-06T05:07:00.692Z,6.00
2018-05-06T05:09:29.728Z,6.10
2018-05-06T05:11:58.709Z,6.03
2018-05-06T05:14:27.908Z,5.97
2018-05-06T05:16:56.890Z,4.93
2018-05-06T05:19:25.854Z,5.17
2018-05-06T05:21:55.129Z,5.63
2018-05-06T05:24:24.428Z,5.20
2018-05-06T05:26:53.384Z,4.87
2018-05-06T05:29:22.360Z,5.40
2018-05-06T05:31:51.341Z,5.20
2018-05-06T05:34:20.426Z,4.60
2018-05-06T05:36:49.354Z,4.50
2018-05-06T05:39:18.317Z,4.47
2018-05-06T05:41:47.296Z,5.50
2018-05-06T05:44:16.283Z,4.90
2018-05-06T05:46:45.319Z,4.73
2018-05-06T05:49:14.306Z,4.20
2018-05-06T05:51:43.258Z,5.07
2018-05-06T05:54:12.224Z,4.73
2018-05-06T05:56:41.169Z,4.20
2018-05-06T05:59:10.177Z,3.70
2018-05-06T06:01:39.157Z,4.30
2018-05-06T06:04:08.128Z,4.00
2018-05-06T06:06:37.195Z,4.47
2018-05-06T06:09:06.196Z,4.63
2018-05-06T06:11:35.186Z,4.33
2018-05-06T06:14:04.140Z,4.80
2018-05-06T06:16:33.087Z,4.27
2018-05-06T06:19:02.027Z,4.33
2018-05-06T06:21:30.974Z,4.03
2018-05-06T06:24:00.033Z,4.50
2018-05-06T06:26:29.021Z,4.73
2018-05-06T06:28:57.967Z,4.70
2018-05-06T06:31:27.433Z,4.87
2018-05-06T06:33:56.407Z,4.47
2018-05-06T06:36:25.385Z,4.53
2018-05-06T06:38:54.327Z,5.20
2018-05-06T06:41:23.286Z,4.80
2018-05-06T06:43:52.318Z,4.10
2018-05-06T06:46:21.309Z,4.67
2018-05-06T06:48:50.247Z,4.30
2018-05-06T06:51:19.200Z,4.57
2018-05-06T06:53:48.184Z,4.43
2018-05-06T06:56:17.131Z,4.40
2018-05-06T06:58:46.091Z,4.70
2018-05-06T07:01:15.054Z,4.67
2018-05-06T07:03:44.004Z,4.83
2018-05-06T07:06:13.986Z,4.27
2018-05-06T07:08:42.947Z,3.83
2018-05-06T07:11:11.930Z,4.00
2018-05-06T07:13:40.907Z,4.00
2018-05-06T07:16:09.853Z,3.90
2018-05-06T07:18:38.847Z,3.87
2018-05-06T07:21:07.785Z,4.13
2018-05-06T07:23:36.714Z,3.40
2018-05-06T07:26:05.655Z,4.27
2018-05-06T07:28:34.614Z,3.40
2018-05-06T07:31:04.160Z,3.93
2018-05-06T07:33:33.114Z,3.83
2018-05-06T07:36:02.068Z,3.30
2018-05-06T07:38:31.024Z,3.50
2018-05-06T07:41:00.126Z,4.00
2018-05-06T07:43:29.086Z,3.43
2018-05-06T07:45:58.030Z,3.67
2018-05-06T07:48:27.092Z,4.23
2018-05-06T07:50:56.030Z,4.23
2018-05-06T07:53:24.965Z,4.17
2018-05-06T07:55:53.916Z,3.50
2018-05-06T07:58:22.953Z,3.87
2018-05-06T08:00:51.889Z,3.60
2018-05-06T08:03:20.833Z,3.43
2018-05-06T08:05:50.034Z,3.53
2018-05-06T08:08:19.042Z,3.07
2018-05-06T08:10:48.068Z,3.00
2018-05-06T08:13:16.965Z,3.30
2018-05-06T08:15:45.897Z,3.03
2018-05-06T08:18:14.828Z,3.30
2018-05-06T08:20:43.838Z,3.00
2018-05-06T08:23:12.830Z,2.40
2018-05-06T08:25:41.770Z,2.80
2018-05-06T08:28:10.706Z,2.47
2018-05-06T08:30:40.558Z,2.53
2018-05-06T08:33:09.537Z,2.57
2018-05-06T08:35:39.100Z,2.40
2018-05-06T08:38:08.046Z,2.40
2018-05-06T08:40:37.319Z,3.00
2018-05-06T08:43:06.342Z,2.43
2018-05-06T08:45:35.298Z,2.73
2018-05-06T08:48:04.234Z,2.40
2018-05-06T08:50:33.942Z,2.40
2018-05-06T08:53:02.878Z,2.37
2018-05-06T08:55:31.815Z,2.60
2018-05-06T08:58:00.763Z,2.53
2018-05-06T09:00:29.706Z,2.90
2018-05-06T09:02:59.405Z,3.33
2018-05-06T09:05:28.351Z,3.23
2018-05-06T09:07:57.740Z,3.30
2018-05-06T09:10:27.228Z,3.40
2018-05-06T09:12:56.173Z,3.37
2018-05-06T09:15:25.132Z,3.70
2018-05-06T09:17:54.089Z,3.60
2018-05-06T09:20:23.150Z,3.30
2018-05-06T09:22:52.131Z,3.40
2018-05-06T09:25:21.768Z,3.30
2018-05-06T09:27:50.681Z,3.13
2018-05-06T09:30:19.625Z,3.33
2018-05-06T09:32:48.682Z,3.43
2018-05-06T09:35:17.671Z,3.37
2018-05-06T09:37:46.746Z,3.70
2018-05-06T09:40:15.677Z,3.47
2018-05-06T09:42:44.611Z,2.90
2018-05-06T09:45:13.834Z,3.13
2018-05-06T09:47:42.905Z,3.30
2018-05-06T09:50:11.789Z,2.90
2018-05-06T09:52:40.738Z,2.73
2018-05-06T09:55:09.678Z,3.10
2018-05-06T09:57:38.755Z,2.77
2018-05-06T10:00:07.745Z,2.90
2018-05-06T10:02:36.680Z,2.60
2018-05-06T10:05:05.618Z,2.47
2018-05-06T10:07:34.553Z,2.97
2018-05-06T10:10:03.498Z,2.50
2018-05-06T10:12:32.482Z,2.30
2018-05-06T10:15:01.428Z,2.20
2018-05-06T10:17:30.408Z,1.97
2018-05-06T10:19:59.345Z,2.60
2018-05-06T10:22:28.386Z,2.47
2018-05-06T10:24:57.365Z,2.27
2018-05-06T10:27:26.511Z,2.17
2018-05-06T10:29:55.456Z,2.23
2018-05-06T10:32:24.385Z,2.00
2018-05-06T10:34:53.322Z,2.43
2018-05-06T10:37:22.289Z,2.43
2018-05-06T10:39:51.343Z,2.27
2018-05-06T10:42:21.051Z,1.97
2018-05-06T10:44:50.105Z,2.00
2018-05-06T10:47:19.087Z,1.87
2018-05-06T10:49:48.186Z,1.80
2018-05-06T10:52:17.202Z,1.80
2018-05-06T10:54:46.278Z,1.70
2018-05-06T10:57:15.373Z,1.70
2018-05-06T10:59:44.397Z,2.00
2018-05-06T11:02:13.414Z,2.10
2018-05-06T11:04:42.375Z,1.77
2018-05-06T11:07:11.387Z,1.90
2018-05-06T11:09:40.346Z,2.00
2018-05-06T11:12:10.039Z,2.43
2018-05-06T11:14:39.081Z,1.80
2018-05-06T11:17:08.286Z,1.80
2018-05-06T11:19:37.219Z,2.00
2018-05-06T11:22:06.469Z,1.93
2018-05-06T11:24:35.400Z,1.73
2018-05-06T11:27:04.365Z,2.10
2018-05-06T11:29:33.365Z,1.83
2018-05-06T11:32:02.726Z,1.77
2018-05-06T11:34:31.780Z,1.90
2018-05-06T11:37:00.737Z,1.97
2018-05-06T11:39:29.758Z,1.90
2018-05-06T11:41:58.739Z,1.70
2018-05-06T11:44:28.694Z,1.87
2018-05-06T11:46:57.633Z,2.00
2018-05-06T11:49:26.714Z,1.80
2018-05-06T11:51:55.655Z,2.00
2018-05-06T11:54:24.590Z,1.97
2018-05-06T11:56:53.715Z,1.87
2018-05-06T11:59:22.669Z,1.83
2018-05-06T12:01:51.680Z,1.40
2018-05-06T12:04:20.665Z,2.00
2018-05-06T12:06:49.629Z,1.80
2018-05-06T12:09:18.666Z,1.70
2018-05-06T12:11:47.657Z,1.83
2018-05-06T12:14:16.628Z,1.67
2018-05-06T12:16:46.103Z,1.50
2018-05-06T12:19:15.049Z,1.70
2018-05-06T12:21:44.060Z,1.80
2018-05-06T12:24:13.007Z,1.60
2018-05-06T12:26:41.955Z,1.80
2018-05-06T12:29:11.671Z,1.80
2018-05-06T12:31:40.610Z,1.37
2018-05-06T12:34:10.086Z,1.90
2018-05-06T12:36:39.042Z,1.80
2018-05-06T12:39:08.117Z,1.70
2018-05-06T12:41:37.750Z,1.80
2018-05-06T12:44:06.763Z,1.70
2018-05-06T12:46:35.993Z,1.70
2018-05-06T12:49:04.925Z,1.73
2018-05-06T12:51:33.865Z,1.53
2018-05-06T12:54:02.862Z,1.50
2018-05-06T12:56:31.848Z,1.60
2018-05-06T12:59:00.836Z,1.90
2018-05-06T13:01:30.408Z,1.70
2018-05-06T13:03:59.366Z,1.60
2018-05-06T13:06:28.328Z,1.70
2018-05-06T13:08:57.282Z,1.63
2018-05-06T13:11:26.263Z,1.63
2018-05-06T13:13:55.258Z,2.03
2018-05-06T13:16:24.230Z,1.60
2018-05-06T13:18:53.169Z,1.53
2018-05-06T13:21:22.146Z,1.77
2018-05-06T13:23:51.569Z,1.63
2018-05-06T13:26:20.512Z,1.60
2018-05-06T13:28:49.642Z,1.80
2018-05-06T13:31:19.126Z,1.80
2018-05-06T13:33:48.145Z,1.60
2018-05-06T13:36:17.131Z,1.47
2018-05-06T13:38:46.152Z,1.87
2018-05-06T13:41:15.827Z,1.47
2018-05-06T13:43:44.770Z,1.67
2018-05-06T13:46:13.762Z,1.80
2018-05-06T13:48:42.763Z,1.57
2018-05-06T13:51:11.706Z,1.30
2018-05-06T13:53:40.637Z,1.37
2018-05-06T13:56:09.579Z,1.63
2018-05-06T13:58:38.532Z,1.60
2018-05-06T14:01:07.923Z,1.60
2018-05-06T14:03:36.878Z,1.87
2018-05-06T14:06:05.823Z,1.47
2018-05-06T14:08:34.760Z,1.57
2018-05-06T14:11:03.717Z,1.60
2018-05-06T14:13:32.722Z,1.67
2018-05-06T14:16:01.746Z,1.93
2018-05-06T14:18:31.031Z,2.00
2018-05-06T14:20:59.969Z,1.77
2018-05-06T14:23:28.920Z,1.80
2018-05-06T14:25:57.910Z,1.70
2018-05-06T14:28:26.841Z,1.70
2018-05-06T14:30:55.784Z,1.60
2018-05-06T14:33:24.736Z,1.50
2018-05-06T14:35:53.705Z,1.47
2018-05-06T14:38:22.681Z,1.50
2018-05-06T14:40:51.627Z,1.57
2018-05-06T14:43:20.652Z,1.73
2018-05-06T14:45:49.601Z,1.73
2018-05-06T14:48:18.587Z,1.60
2018-05-06T14:50:47.721Z,1.80
2018-05-06T14:53:16.650Z,1.73
2018-05-06T14:55:45.640Z,1.77
2018-05-06T14:58:14.576Z,1.60
2018-05-06T15:00:43.527Z,2.07
2018-05-06T15:03:12.460Z,1.97
2018-05-06T15:05:41.413Z,1.90
2018-05-06T15:08:10.391Z,1.77
2018-05-06T15:10:39.399Z,3.23
2018-05-06T15:13:08.971Z,1.80
2018-05-06T15:15:37.943Z,2.07
2018-05-06T15:18:06.885Z,2.30
2018-05-06T15:20:35.983Z,5.07
2018-05-06T15:23:04.921Z,2.43
2018-05-06T15:25:33.861Z,2.10
2018-05-06T15:28:02.801Z,1.80
2018-05-06T15:30:31.847Z,2.17
2018-05-06T15:33:01.579Z,1.93
2018-05-06T15:35:30.509Z,1.97
2018-05-06T15:37:59.455Z,1.73
2018-05-06T15:40:28.401Z,1.77
2018-05-06T15:42:57.445Z,1.60
2018-05-06T15:45:26.480Z,1.60
2018-05-06T15:47:55.414Z,1.70
2018-05-06T15:50:24.979Z,1.90
2018-05-06T15:52:53.893Z,1.80
2018-05-06T15:55:22.834Z,1.90
2018-05-06T15:57:51.769Z,1.87
2018-05-06T16:00:20.742Z,1.67
2018-05-06T16:02:55.520Z,1.80
2018-05-06T16:05:24.453Z,1.93
2018-05-06T16:07:53.405Z,2.07
2018-05-06T16:10:22.350Z,1.77
2018-05-06T16:12:51.359Z,1.77
2018-05-06T16:15:20.334Z,1.70
2018-05-06T16:17:49.362Z,2.00
2018-05-06T16:20:18.288Z,1.70
2018-05-06T16:22:47.230Z,1.77
2018-05-06T16:25:16.179Z,1.80
2018-05-06T16:27:45.171Z,3.93
2018-05-06T16:43:10.654Z,1.67
2018-05-06T16:45:39.634Z,1.93
2018-05-06T16:48:08.583Z,2.00
2018-05-06T16:50:38.295Z,1.90
2018-05-06T16:53:07.248Z,2.73
2018-05-06T16:55:36.192Z,2.00
2018-05-06T16:58:05.137Z,2.33
2018-05-06T17:00:34.090Z,2.30
2018-05-06T17:03:03.074Z,2.10
2018-05-06T17:05:32.010Z,2.63
2018-05-06T17:08:00.973Z,2.90
2018-05-06T17:10:29.911Z,3.00
2018-05-06T17:12:58.865Z,2.53
2018-05-06T17:15:27.846Z,3.23
2018-05-06T17:17:56.794Z,2.20
2018-05-06T17:20:25.738Z,2.80
2018-05-06T17:22:54.681Z,3.83
2018-05-06T17:25:23.622Z,3.40
2018-05-06T17:27:52.595Z,2.57
2018-05-06T17:30:21.591Z,2.83
2018-05-06T17:32:50.535Z,2.77
2018-05-06T17:35:19.493Z,2.43
2018-05-06T17:37:48.463Z,2.30
2018-05-06T17:40:17.522Z,2.37
2018-05-06T17:42:46.680Z,2.23
2018-05-06T17:45:15.639Z,2.50
2018-05-06T17:47:44.583Z,2.27
2018-05-06T17:50:13.536Z,1.83
2018-05-06T17:52:43.348Z,2.40
2018-05-06T17:55:12.383Z,2.20
2018-05-06T17:57:41.335Z,2.57
2018-05-06T18:00:10.519Z,2.60
2018-05-06T18:02:39.582Z,2.90
2018-05-06T18:05:08.578Z,2.53
2018-05-06T18:07:37.573Z,2.93
2018-05-06T18:10:06.482Z,3.23
2018-05-06T18:12:35.432Z,3.30
2018-05-06T18:15:04.479Z,2.90
2018-05-06T18:17:33.426Z,3.67
2018-05-06T18:20:02.437Z,3.57
2018-05-06T18:22:31.408Z,5.47
2018-05-06T18:25:00.351Z,5.70
2018-05-06T18:27:29.294Z,6.30
2018-05-06T18:29:58.341Z,4.27
2018-05-06T18:32:27.360Z,5.23
2018-05-06T18:34:56.330Z,7.97
2018-05-06T18:37:25.279Z,4.10
2018-05-06T18:39:54.208Z,3.57
2018-05-06T18:42:23.574Z,5.03
2018-05-06T18:44:52.557Z,6.17
2018-05-06T18:47:21.595Z,5.30
2018-05-06T18:49:51.174Z,5.37
2018-05-06T18:52:20.169Z,4.13
2018-05-06T18:54:49.101Z,4.30
2018-05-06T18:57:18.398Z,4.70
2018-05-06T18:59:47.290Z,9.37
2018-05-06T19:02:16.283Z,4.90
2018-05-06T19:04:45.227Z,5.33
2018-05-06T19:07:14.183Z,5.63
2018-05-06T19:09:43.134Z,5.23
2018-05-06T19:12:12.083Z,5.17
2018-05-06T19:14:41.073Z,5.27
2018-05-06T19:17:10.128Z,5.63
2018-05-06T19:19:39.027Z,6.13
2018-05-06T19:22:07.997Z,7.20
2018-05-06T19:24:36.942Z,6.83
2018-05-06T19:27:05.921Z,6.63
2018-05-06T19:29:34.963Z,6.57
2018-05-06T19:32:03.854Z,7.93
2018-05-06T19:34:32.810Z,7.97
2018-05-06T19:37:01.753Z,7.83
2018-05-06T19:39:30.752Z,7.77
2018-05-06T19:41:59.694Z,8.27
2018-05-06T19:44:28.648Z,8.63
2018-05-06T19:46:57.628Z,9.17
2018-05-06T19:49:26.586Z,9.13
2018-05-06T19:51:55.902Z,7.53
2018-05-06T19:54:24.853Z,7.80
2018-05-06T19:56:53.816Z,7.80
2018-05-06T19:59:22.769Z,7.83
2018-05-06T20:01:51.718Z,6.80
2018-05-06T20:04:20.754Z,6.53
2018-05-06T20:06:49.694Z,6.57
2018-05-06T20:09:18.633Z,5.77
2018-05-06T20:11:47.613Z,5.47
2018-05-06T20:14:16.578Z,6.10
2018-05-06T20:16:45.591Z,7.40
2018-05-06T20:19:14.543Z,7.60
2018-05-06T20:21:43.614Z,8.57
2018-05-06T20:24:12.535Z,7.63
2018-05-06T20:26:41.551Z,8.50
2018-05-06T20:34:50.259Z,9.53
2018-05-06T20:44:58.422Z,8.53
2018-05-06T20:47:40.378Z,8.37
2018-05-06T20:50:13.425Z,8.50
2018-05-06T20:52:42.518Z,8.40
2018-05-06T20:55:12.506Z,7.70
2018-05-06T21:00:18.771Z,8.53
2018-05-06T21:02:48.877Z,8.60
2018-05-06T21:05:18.651Z,8.47
2018-05-06T21:10:32.826Z,7.87
2018-05-06T21:13:02.895Z,8.03
2018-05-06T21:15:32.978Z,7.80
2018-05-06T21:18:01.987Z,11.40
2018-05-06T21:20:44.912Z,10.80
2018-05-06T21:23:32.809Z,10.93
2018-05-06T21:53:47.909Z,8.03
2018-05-06T21:56:16.909Z,7.60
2018-05-06T21:58:45.927Z,8.20
2018-05-06T22:01:20.925Z,7.83
2018-05-06T22:03:49.967Z,8.43
2018-05-06T22:06:19.070Z,8.13
2018-05-06T22:08:48.067Z,8.20
2018-05-06T22:11:17.110Z,8.50
2018-05-06T22:13:46.131Z,8.60
2018-05-06T22:16:15.169Z,7.80
2018-05-06T22:18:44.222Z,7.87
2018-05-06T22:21:13.306Z,7.77
2018-05-06T22:23:42.359Z,7.67
2018-05-06T22:26:11.400Z,8.37
2018-05-06T22:28:40.479Z,8.20
2018-05-06T22:31:09.553Z,8.33
2018-05-06T22:33:38.595Z,7.73
2018-05-06T22:36:07.990Z,7.83
2018-05-06T22:38:37.058Z,6.77
2018-05-06T22:41:06.091Z,7.67
2018-05-06T22:43:35.167Z,8.40
2018-05-06T22:46:04.187Z,8.20
2018-05-06T22:48:33.208Z,8.33
2018-05-06T22:51:02.215Z,9.43
2018-05-06T22:53:31.249Z,9.57
2018-05-06T22:56:00.314Z,9.13
2018-05-06T22:58:29.333Z,8.77
2018-05-06T23:00:58.363Z,8.73
2018-05-06T23:03:27.365Z,8.53
2018-05-06T23:05:56.372Z,8.87
2018-05-06T23:08:25.378Z,9.27
2018-05-06T23:10:54.428Z,8.80
2018-05-06T23:13:23.472Z,9.40
2018-05-06T23:15:52.451Z,8.97
2018-05-06T23:18:21.510Z,8.87
2018-05-06T23:20:50.626Z,8.60
2018-05-06T23:23:19.623Z,8.77
2018-05-06T23:25:48.682Z,8.30
2018-05-06T23:28:17.764Z,8.50
2018-05-06T23:30:46.769Z,8.30
2018-05-06T23:33:15.753Z,8.27
2018-05-06T23:35:44.797Z,8.70
2018-05-06T23:38:13.898Z,8.37
2018-05-06T23:40:42.924Z,8.57
2018-05-06T23:43:11.955Z,7.80
2018-05-06T23:45:41.030Z,7.77
2018-05-06T23:48:10.053Z,7.90
2018-05-06T23:50:39.135Z,7.37
2018-05-06T23:53:08.155Z,7.70
2018-05-06T23:55:37.206Z,9.77
2018-05-06T23:58:06.288Z,10.43
